Terminal Aerodrome Forecast
Issued by NWS Boston, MA

Home | Current Version | Previous Version | Text Only | Print | Product List | Glossary On
Versions: 1 2 3 4 5 6 7 8 9 10 11 12 13 14 15 16 17 18 19 20
000
FTUS41 KBOX 231126
TAFORH
TAF
KORH 231126Z 2312/2412 01016G29KT 5SM -SHRA BR OVC005 WS020/04040KT
     FM231400 01015G28KT 6SM -SHRA BR OVC007 WS020/04040KT
     FM231900 01013G27KT 6SM BR OVC010
     FM240700 34011G19KT 3SM BR OVC010=

USA.gov is the U.S. government's official web portal to all federal, state and local government web resources and services.